Time;durP1;ratioP1;P1;durP2;ratioP2;P2;SDS_P1;SDS_P2;PMS_P1;PMS_P2;Temp;Humidity;BMP_temperature;BMP_pressure;BME280_temperature;BME280_humidity;BME280_pressure;Samples;Min_cycle;Max_cycle;Signal;HPM_P1;HPM_P2
2023/04/21 00:00:58;;;;;;;9.52;1.90;;;;;;;;;;4970544;28;20495;-62
2023/04/21 00:03:30;;;;;;;9.27;2.38;;;;;;;;;;4939000;28;20063;-61
2023/04/21 00:06:00;;;;;;;6.75;2.10;;;;;;;;;;4970541;28;20055;-63
2023/04/21 00:08:31;;;;;;;5.00;2.10;;;;;;;;;;4970300;28;20059;-62
2023/04/21 00:11:01;;;;;;;15.65;2.28;;;;;;;;;;4953041;28;20043;-61
2023/04/21 00:13:31;;;;;;;5.18;2.15;;;;;;;;;;4935373;29;20059;-62
2023/04/21 00:16:02;;;;;;;5.38;2.30;;;;;;;;;;4935532;29;21039;-63
2023/04/21 00:18:32;;;;;;;7.47;2.35;;;;;;;;;;4913108;29;20051;-61
2023/04/21 00:21:02;;;;;;;5.50;2.03;;;;;;;;;;4882463;29;20693;-65
2023/04/21 00:23:32;;;;;;;4.93;2.13;;;;;;;;;;4894257;29;20052;-61
2023/04/21 00:26:02;;;;;;;5.68;2.20;;;;;;;;;;4909922;29;20056;-62
2023/04/21 00:28:33;;;;;;;7.82;2.28;;;;;;;;;;4883910;29;20554;-62
2023/04/21 00:31:04;;;;;;;9.13;2.05;;;;;;;;;;4894055;29;20057;-62
2023/04/21 00:33:34;;;;;;;4.43;2.17;;;;;;;;;;4894109;29;20049;-61
2023/04/21 00:36:05;;;;;;;5.18;1.83;;;;;;;;;;4811074;29;20057;-61
2023/04/21 00:38:35;;;;;;;6.07;1.73;;;;;;;;;;4856888;29;20057;-62
2023/04/21 00:41:05;;;;;;;5.20;2.03;;;;;;;;;;4856293;29;20152;-62
2023/04/21 00:44:08;;;;;;;6.18;2.05;;;;;;;;;;4838139;29;20053;-62
2023/04/21 00:46:38;;;;;;;7.32;2.00;;;;;;;;;;4838249;29;20057;-62
2023/04/21 00:49:08;;;;;;;7.47;2.45;;;;;;;;;;4838409;29;20069;-62
2023/04/21 00:51:39;;;;;;;5.85;2.40;;;;;;;;;;4808081;29;20518;-63
2023/04/21 00:54:12;;;;;;;6.47;2.05;;;;;;;;;;4819670;29;20054;-64
2023/04/21 00:56:43;;;;;;;6.18;2.30;;;;;;;;;;4819766;29;20065;-63
2023/04/21 00:59:13;;;;;;;8.50;2.28;;;;;;;;;;4830470;29;20171;-62
2023/04/21 01:01:43;;;;;;;5.15;2.03;;;;;;;;;;4822959;29;20061;-62
2023/04/21 01:04:13;;;;;;;7.60;2.20;;;;;;;;;;4856319;29;20410;-62
2023/04/21 01:06:43;;;;;;;6.35;2.50;;;;;;;;;;4840826;29;20105;-62
2023/04/21 01:09:13;;;;;;;6.60;2.25;;;;;;;;;;4810178;29;20050;-62
2023/04/21 01:12:07;;;;;;;5.63;1.80;;;;;;;;;;4827702;29;20064;-62
2023/04/21 01:14:39;;;;;;;6.60;2.00;;;;;;;;;;4833784;29;20490;-62
2023/04/21 01:17:11;;;;;;;8.18;2.20;;;;;;;;;;4840830;29;20531;-62
2023/04/21 01:19:42;;;;;;;5.07;2.58;;;;;;;;;;4858639;29;20414;-62
2023/04/21 01:22:14;;;;;;;6.72;2.30;;;;;;;;;;4796667;29;20063;-62
2023/04/21 01:24:46;;;;;;;5.95;2.28;;;;;;;;;;4819322;29;20153;-61
2023/04/21 01:27:18;;;;;;;5.85;2.20;;;;;;;;;;4819305;29;20077;-62
2023/04/21 01:29:50;;;;;;;8.90;2.80;;;;;;;;;;4853097;29;20049;-62
2023/04/21 01:32:25;;;;;;;5.60;2.40;;;;;;;;;;4846364;29;20061;-61
2023/04/21 01:34:57;;;;;;;4.80;2.03;;;;;;;;;;4806951;29;20690;-62
2023/04/21 01:37:32;;;;;;;6.85;2.50;;;;;;;;;;4801238;29;20078;-62
2023/04/21 01:40:05;;;;;;;7.35;2.33;;;;;;;;;;4804385;29;20055;-61
2023/04/21 01:42:39;;;;;;;7.60;2.47;;;;;;;;;;4805324;29;20063;-63
2023/04/21 01:45:11;;;;;;;6.45;2.55;;;;;;;;;;4815764;29;20459;-62
2023/04/21 01:47:41;;;;;;;6.43;2.38;;;;;;;;;;4819553;29;20066;-62
2023/04/21 01:50:13;;;;;;;6.60;3.03;;;;;;;;;;4840971;29;20058;-62
2023/04/21 01:52:43;;;;;;;6.18;2.08;;;;;;;;;;4828480;29;20066;-64
2023/04/21 01:55:15;;;;;;;7.80;2.28;;;;;;;;;;4837931;29;20058;-62
2023/04/21 01:57:45;;;;;;;5.13;2.08;;;;;;;;;;4819212;29;20043;-65
2023/04/21 02:00:16;;;;;;;6.28;2.30;;;;;;;;;;4839748;29;20061;-65
2023/04/21 02:02:48;;;;;;;7.35;2.47;;;;;;;;;;4841003;29;20095;-62
2023/04/21 02:05:18;;;;;;;8.05;2.63;;;;;;;;;;4840914;29;20058;-62
2023/04/21 02:07:48;;;;;;;7.32;2.75;;;;;;;;;;4837119;29;20092;-62
2023/04/21 02:10:19;;;;;;;6.72;2.70;;;;;;;;;;4855968;29;20149;-62
2023/04/21 02:12:49;;;;;;;6.57;2.25;;;;;;;;;;4851719;29;20061;-62
2023/04/21 02:15:19;;;;;;;8.65;3.42;;;;;;;;;;4858856;29;20061;-62
2023/04/21 02:17:49;;;;;;;8.25;2.67;;;;;;;;;;4859116;29;20061;-62
2023/04/21 02:20:19;;;;;;;5.90;2.42;;;;;;;;;;4858772;29;20818;-62
2023/04/21 02:22:49;;;;;;;7.57;3.00;;;;;;;;;;4874633;29;20049;-62
2023/04/21 02:25:20;;;;;;;5.55;2.67;;;;;;;;;;4867790;29;20057;-62
2023/04/21 02:27:50;;;;;;;11.30;2.80;;;;;;;;;;4887453;29;20060;-63
2023/04/21 02:30:20;;;;;;;7.50;2.67;;;;;;;;;;4896246;29;20695;-61
2023/04/21 02:32:50;;;;;;;7.25;2.80;;;;;;;;;;4865112;29;20529;-62
2023/04/21 02:35:22;;;;;;;5.82;2.58;;;;;;;;;;4895965;29;20056;-62
2023/04/21 02:37:52;;;;;;;8.90;2.53;;;;;;;;;;4905131;29;20072;-61
2023/04/21 02:40:23;;;;;;;6.60;2.70;;;;;;;;;;4923487;29;20159;-62
2023/04/21 02:42:53;;;;;;;11.75;3.05;;;;;;;;;;4895404;29;20052;-64
2023/04/21 02:45:23;;;;;;;8.88;3.08;;;;;;;;;;4914915;29;20584;-63
2023/04/21 02:47:53;;;;;;;6.82;2.78;;;;;;;;;;4875031;29;20060;-61
2023/04/21 02:50:24;;;;;;;9.48;3.05;;;;;;;;;;4857737;29;20053;-65
2023/04/21 02:52:54;;;;;;;11.70;3.92;;;;;;;;;;4858700;29;20414;-62
2023/04/21 02:55:24;;;;;;;6.07;3.03;;;;;;;;;;4867375;29;20548;-61
2023/04/21 02:57:54;;;;;;;7.57;2.80;;;;;;;;;;4877023;29;20602;-63
2023/04/21 03:00:25;;;;;;;11.57;3.03;;;;;;;;;;4858465;29;20054;-62
2023/04/21 03:02:58;;;;;;;10.77;2.65;;;;;;;;;;4867154;29;20080;-66
2023/04/21 03:05:28;;;;;;;10.13;2.95;;;;;;;;;;4873469;29;20054;-62
2023/04/21 03:07:59;;;;;;;7.65;3.05;;;;;;;;;;4867118;29;20108;-62
2023/04/21 03:10:29;;;;;;;7.97;3.10;;;;;;;;;;4877081;29;20102;-61
2023/04/21 03:12:59;;;;;;;9.50;2.85;;;;;;;;;;4876772;29;20056;-61
2023/04/21 03:15:31;;;;;;;6.22;2.70;;;;;;;;;;4876545;29;20049;-63
2023/04/21 03:18:02;;;;;;;7.60;2.97;;;;;;;;;;4876495;29;20057;-62
2023/04/21 03:20:32;;;;;;;11.07;3.20;;;;;;;;;;4895467;29;20402;-62
2023/04/21 03:23:02;;;;;;;7.97;3.28;;;;;;;;;;4876116;29;20410;-62
2023/04/21 03:25:32;;;;;;;11.05;3.20;;;;;;;;;;4876322;29;20628;-61
2023/04/21 03:28:03;;;;;;;11.20;3.17;;;;;;;;;;4809028;29;20066;-64
2023/04/21 03:30:33;;;;;;;6.35;3.10;;;;;;;;;;4835804;29;20107;-61
2023/04/21 03:33:03;;;;;;;8.82;3.63;;;;;;;;;;4854130;29;20050;-62
2023/04/21 03:35:33;;;;;;;9.95;3.08;;;;;;;;;;4839610;29;20073;-62
2023/04/21 03:38:03;;;;;;;6.55;3.00;;;;;;;;;;4848450;29;20456;-63
2023/04/21 03:40:37;;;;;;;6.72;2.80;;;;;;;;;;4824110;29;20046;-62
2023/04/21 03:43:07;;;;;;;7.13;2.92;;;;;;;;;;4829918;29;20062;-62
2023/04/21 03:45:38;;;;;;;8.80;3.17;;;;;;;;;;4773402;29;20504;-62
2023/04/21 03:48:08;;;;;;;7.10;2.92;;;;;;;;;;4757727;29;20069;-61
2023/04/21 03:50:38;;;;;;;6.13;2.50;;;;;;;;;;4789165;29;20051;-65
2023/04/21 03:53:08;;;;;;;7.00;2.80;;;;;;;;;;4790661;29;20062;-61
2023/04/21 03:55:38;;;;;;;7.05;2.75;;;;;;;;;;4805971;29;20051;-62
2023/04/21 03:58:09;;;;;;;12.45;3.33;;;;;;;;;;4802289;29;20062;-61
2023/04/21 04:00:39;;;;;;;6.10;2.70;;;;;;;;;;4799538;29;20049;-66
2023/04/21 04:03:09;;;;;;;9.40;2.88;;;;;;;;;;4838112;29;20061;-62
2023/04/21 04:05:40;;;;;;;10.10;3.13;;;;;;;;;;4839103;29;20066;-65
2023/04/21 04:08:10;;;;;;;7.07;2.70;;;;;;;;;;4823486;29;20061;-62
2023/04/21 04:10:40;;;;;;;8.43;2.38;;;;;;;;;;4844263;29;20520;-62
2023/04/21 04:13:10;;;;;;;6.32;2.75;;;;;;;;;;4894332;29;20052;-61
2023/04/21 04:15:40;;;;;;;6.72;3.10;;;;;;;;;;4864056;29;20430;-62
2023/04/21 04:18:11;;;;;;;7.00;2.78;;;;;;;;;;4916325;29;20050;-61
2023/04/21 04:20:41;;;;;;;7.78;2.30;;;;;;;;;;4909329;29;20057;-62
2023/04/21 04:23:11;;;;;;;6.18;2.13;;;;;;;;;;4919559;29;20050;-65
2023/04/21 04:25:41;;;;;;;7.03;3.38;;;;;;;;;;4935263;29;20062;-61
2023/04/21 04:28:11;;;;;;;8.27;2.95;;;;;;;;;;4951232;29;20077;-61
2023/04/21 04:30:42;;;;;;;7.65;3.10;;;;;;;;;;4901128;29;20063;-64
2023/04/21 04:33:12;;;;;;;8.75;2.97;;;;;;;;;;4885033;29;20085;-63
2023/04/21 04:35:42;;;;;;;6.32;2.42;;;;;;;;;;4940654;29;20082;-62
2023/04/21 04:38:15;;;;;;;5.95;2.20;;;;;;;;;;4935203;29;20602;-63
2023/04/21 04:40:53;;;;;;;6.55;2.50;;;;;;;;;;4950957;29;20054;-62
2023/04/21 04:43:24;;;;;;;5.72;2.33;;;;;;;;;;4931557;29;20059;-62
2023/04/21 04:45:54;;;;;;;7.10;2.65;;;;;;;;;;4947495;29;20054;-62
2023/04/21 04:48:25;;;;;;;5.20;2.13;;;;;;;;;;4903595;29;20160;-61
2023/04/21 04:50:55;;;;;;;5.47;2.30;;;;;;;;;;4961198;28;20527;-63
2023/04/21 04:53:27;;;;;;;5.78;2.03;;;;;;;;;;4970379;28;20047;-61
2023/04/21 04:55:58;;;;;;;7.80;2.33;;;;;;;;;;4970378;28;20073;-61
2023/04/21 04:58:28;;;;;;;9.10;2.40;;;;;;;;;;4937878;28;20054;-62
2023/04/21 05:00:59;;;;;;;5.63;2.60;;;;;;;;;;4938048;28;20058;-65
2023/04/21 05:03:29;;;;;;;4.78;2.20;;;;;;;;;;4954014;28;20055;-62
2023/04/21 05:06:00;;;;;;;7.78;2.08;;;;;;;;;;4969910;28;20058;-61
2023/04/21 05:08:29;;;;;;;7.05;2.60;;;;;;;;;;4993342;28;20058;-67
2023/04/21 05:11:00;;;;;;;5.57;2.03;;;;;;;;;;5011734;28;20050;-61
2023/04/21 05:13:31;;;;;;;8.30;2.60;;;;;;;;;;5025186;28;20058;-62
2023/04/21 05:16:01;;;;;;;4.88;2.55;;;;;;;;;;5011130;28;20053;-61
2023/04/21 05:18:31;;;;;;;5.53;2.45;;;;;;;;;;5011639;28;20046;-62
2023/04/21 05:21:01;;;;;;;6.63;2.10;;;;;;;;;;5010935;28;20049;-62
2023/04/21 05:23:31;;;;;;;4.85;2.05;;;;;;;;;;4992812;28;20046;-62
2023/04/21 05:26:01;;;;;;;5.68;3.25;;;;;;;;;;4976649;28;20495;-64
2023/04/21 05:28:34;;;;;;;10.63;2.53;;;;;;;;;;5011311;28;20049;-67
2023/04/21 05:31:05;;;;;;;6.95;2.50;;;;;;;;;;4976194;28;20057;-61
2023/04/21 05:33:35;;;;;;;5.50;2.10;;;;;;;;;;4976418;28;20134;-62
2023/04/21 05:36:09;;;;;;;10.55;2.15;;;;;;;;;;4943824;28;20525;-62
2023/04/21 05:38:39;;;;;;;5.97;2.28;;;;;;;;;;5011378;28;20046;-65
2023/04/21 05:41:10;;;;;;;13.30;2.83;;;;;;;;;;5010657;28;20057;-63
2023/04/21 05:43:40;;;;;;;4.05;2.05;;;;;;;;;;5010947;28;20057;-62
2023/04/21 05:46:10;;;;;;;4.57;1.75;;;;;;;;;;4988756;28;20050;-62
2023/04/21 05:48:40;;;;;;;3.60;1.80;;;;;;;;;;4988892;28;20085;-63
2023/04/21 05:51:11;;;;;;;6.70;2.50;;;;;;;;;;5008512;28;20557;-64
2023/04/21 05:53:43;;;;;;;5.20;2.22;;;;;;;;;;4976584;28;20061;-62
2023/04/21 05:56:13;;;;;;;4.72;2.00;;;;;;;;;;4959964;28;20058;-62
2023/04/21 05:58:43;;;;;;;5.15;2.10;;;;;;;;;;4959883;28;20587;-64
2023/04/21 06:01:14;;;;;;;5.38;2.28;;;;;;;;;;4991761;28;20057;-63
2023/04/21 06:03:47;;;;;;;7.38;2.50;;;;;;;;;;4918413;29;20058;-65
2023/04/21 06:06:19;;;;;;;5.80;2.25;;;;;;;;;;4950176;29;20059;-62
2023/04/21 06:08:49;;;;;;;9.10;2.47;;;;;;;;;;4949976;29;20066;-64
2023/04/21 06:11:20;;;;;;;6.60;2.38;;;;;;;;;;4950331;29;20064;-62
2023/04/21 06:13:52;;;;;;;9.93;2.58;;;;;;;;;;4965866;28;20059;-62
2023/04/21 06:16:22;;;;;;;9.13;2.53;;;;;;;;;;4969026;28;20518;-63
2023/04/21 06:18:52;;;;;;;9.10;2.38;;;;;;;;;;4953238;28;20047;-62
2023/04/21 06:21:22;;;;;;;6.15;2.42;;;;;;;;;;4933791;29;20095;-62
2023/04/21 06:23:52;;;;;;;6.25;2.42;;;;;;;;;;4939954;29;20567;-63
2023/04/21 06:26:23;;;;;;;7.30;2.97;;;;;;;;;;4885917;29;20554;-64
2023/04/21 06:28:53;;;;;;;7.88;2.70;;;;;;;;;;4918499;29;20066;-61
2023/04/21 06:31:23;;;;;;;5.35;2.75;;;;;;;;;;4918439;29;20047;-62
2023/04/21 06:33:53;;;;;;;5.50;2.13;;;;;;;;;;4934364;29;20056;-62
2023/04/21 06:36:23;;;;;;;7.35;2.45;;;;;;;;;;4934410;29;20048;-64
2023/04/21 06:38:53;;;;;;;5.50;2.35;;;;;;;;;;4917998;29;20067;-61
2023/04/21 06:41:24;;;;;;;7.80;2.33;;;;;;;;;;4927041;29;20063;-63
2023/04/21 06:43:54;;;;;;;5.18;2.05;;;;;;;;;;4953249;28;20535;-62
2023/04/21 06:46:24;;;;;;;8.25;2.78;;;;;;;;;;4936840;29;20066;-65
2023/04/21 06:48:55;;;;;;;4.25;1.90;;;;;;;;;;4953103;29;20062;-62
2023/04/21 06:51:25;;;;;;;5.20;2.28;;;;;;;;;;4936810;29;20558;-61
2023/04/21 06:53:55;;;;;;;5.15;2.10;;;;;;;;;;4961763;28;20066;-62
2023/04/21 06:56:26;;;;;;;6.30;2.35;;;;;;;;;;4972354;28;20051;-62
2023/04/21 06:58:56;;;;;;;7.90;2.88;;;;;;;;;;4991327;28;20502;-62
2023/04/21 07:01:27;;;;;;;9.20;2.88;;;;;;;;;;5013681;28;20050;-62
2023/04/21 07:03:57;;;;;;;8.75;2.47;;;;;;;;;;5013749;28;20038;-61
2023/04/21 07:06:27;;;;;;;5.93;2.63;;;;;;;;;;4979045;28;20054;-61
2023/04/21 07:08:57;;;;;;;12.27;2.83;;;;;;;;;;4979271;28;20062;-65
2023/04/21 07:11:27;;;;;;;6.18;2.47;;;;;;;;;;5013862;28;20045;-66
2023/04/21 07:14:01;;;;;;;5.78;2.22;;;;;;;;;;4994773;28;20053;-63
2023/04/21 07:16:31;;;;;;;5.53;2.50;;;;;;;;;;5013357;28;20045;-62
2023/04/21 07:19:01;;;;;;;7.80;2.95;;;;;;;;;;5013359;28;20045;-62
2023/04/21 07:21:34;;;;;;;9.32;2.15;;;;;;;;;;4939633;28;20054;-61
2023/04/21 07:24:06;;;;;;;6.40;2.42;;;;;;;;;;4971967;28;20054;-62
2023/04/21 07:26:36;;;;;;;6.00;2.30;;;;;;;;;;4972050;28;20062;-62
2023/04/21 07:29:06;;;;;;;8.90;2.60;;;;;;;;;;4972038;28;20065;-62
2023/04/21 07:31:36;;;;;;;8.48;2.42;;;;;;;;;;4971782;28;20062;-62
2023/04/21 07:34:06;;;;;;;10.57;3.03;;;;;;;;;;4909133;28;20055;-63
2023/04/21 07:36:36;;;;;;;9.32;2.88;;;;;;;;;;4933060;29;20193;-62
2023/04/21 07:39:07;;;;;;;6.25;2.40;;;;;;;;;;4933291;29;20060;-62
2023/04/21 07:41:37;;;;;;;6.28;2.90;;;;;;;;;;4933125;29;20093;-62
2023/04/21 07:44:07;;;;;;;7.95;2.97;;;;;;;;;;4932789;29;20052;-63
2023/04/21 07:46:38;;;;;;;5.05;2.13;;;;;;;;;;4933360;29;20074;-62
2023/04/21 07:49:09;;;;;;;7.53;2.45;;;;;;;;;;4933149;29;20059;-62
2023/04/21 07:51:40;;;;;;;6.93;2.50;;;;;;;;;;4934389;29;20063;-62
2023/04/21 07:54:10;;;;;;;5.78;2.40;;;;;;;;;;4952017;29;20067;-62
2023/04/21 07:56:40;;;;;;;7.10;2.60;;;;;;;;;;4970729;28;20058;-62
2023/04/21 07:59:10;;;;;;;6.68;2.30;;;;;;;;;;4970876;28;20055;-62
2023/04/21 08:01:40;;;;;;;6.35;2.35;;;;;;;;;;4954904;28;20055;-62
2023/04/21 08:04:10;;;;;;;7.93;2.72;;;;;;;;;;4924062;28;20625;-62
2023/04/21 08:06:41;;;;;;;7.80;2.88;;;;;;;;;;4970952;28;20047;-63
2023/04/21 08:09:12;;;;;;;6.55;2.55;;;;;;;;;;4971169;28;20047;-62
2023/04/21 08:11:42;;;;;;;9.05;3.08;;;;;;;;;;4971222;28;20050;-63
2023/04/21 08:14:12;;;;;;;8.43;3.28;;;;;;;;;;4980180;28;20061;-62
2023/04/21 08:16:43;;;;;;;10.95;2.83;;;;;;;;;;4990522;28;20057;-63
2023/04/21 08:19:13;;;;;;;10.75;3.30;;;;;;;;;;4990300;28;20049;-62
2023/04/21 08:21:43;;;;;;;9.38;3.03;;;;;;;;;;4929949;28;20064;-62
2023/04/21 08:24:13;;;;;;;10.43;3.40;;;;;;;;;;5009721;28;20049;-61
2023/04/21 08:26:43;;;;;;;10.02;3.33;;;;;;;;;;4977029;28;20053;-62
2023/04/21 08:29:14;;;;;;;8.48;3.67;;;;;;;;;;5009602;28;20085;-61
2023/04/21 08:31:44;;;;;;;6.75;2.67;;;;;;;;;;5009686;28;20058;-63
2023/04/21 08:34:14;;;;;;;7.70;2.95;;;;;;;;;;5010526;28;20061;-63
2023/04/21 08:36:46;;;;;;;6.20;2.65;;;;;;;;;;4977551;28;20135;-64
2023/04/21 08:39:16;;;;;;;7.68;3.03;;;;;;;;;;4993171;28;20050;-62
2023/04/21 08:41:47;;;;;;;8.52;2.78;;;;;;;;;;5012023;28;20046;-62
2023/04/21 08:44:18;;;;;;;7.43;3.00;;;;;;;;;;4977083;28;20078;-66
2023/04/21 08:46:50;;;;;;;8.45;2.58;;;;;;;;;;4977655;28;20060;-63
2023/04/21 08:49:21;;;;;;;20.88;3.17;;;;;;;;;;5011328;28;20053;-63
2023/04/21 08:51:51;;;;;;;13.10;2.97;;;;;;;;;;5012107;28;20046;-61
2023/04/21 08:54:21;;;;;;;10.55;3.38;;;;;;;;;;5011646;28;20402;-62
2023/04/21 08:56:51;;;;;;;9.07;3.53;;;;;;;;;;5010415;28;20037;-62
2023/04/21 08:59:34;;;;;;;8.90;2.95;;;;;;;;;;5009158;28;20061;-62
2023/04/21 09:02:11;;;;;;;8.65;3.08;;;;;;;;;;4993069;28;20054;-62
2023/04/21 09:04:43;;;;;;;10.38;3.15;;;;;;;;;;5011390;28;20045;-65
2023/04/21 09:07:38;;;;;;;10.70;3.20;;;;;;;;;;4989394;28;20051;-63
2023/04/21 09:10:10;;;;;;;8.75;3.53;;;;;;;;;;4912103;28;20090;-63
2023/04/21 09:12:40;;;;;;;9.02;3.47;;;;;;;;;;4989119;28;20054;-62
2023/04/21 09:15:11;;;;;;;7.38;3.28;;;;;;;;;;4973719;28;20411;-62
2023/04/21 09:17:45;;;;;;;7.97;3.45;;;;;;;;;;4988952;28;20042;-62
2023/04/21 09:20:19;;;;;;;10.57;3.58;;;;;;;;;;4989289;28;20065;-62
2023/04/21 09:22:50;;;;;;;12.60;3.78;;;;;;;;;;4940662;28;20050;-62
2023/04/21 09:25:22;;;;;;;10.82;3.33;;;;;;;;;;4973083;28;20414;-63
2023/04/21 09:27:54;;;;;;;9.82;3.22;;;;;;;;;;4989121;28;20047;-62
2023/04/21 09:30:25;;;;;;;7.25;3.22;;;;;;;;;;4957184;28;20058;-63
2023/04/21 09:32:58;;;;;;;7.30;3.15;;;;;;;;;;4989130;28;20058;-62
2023/04/21 09:35:29;;;;;;;8.52;2.95;;;;;;;;;;4989374;28;20050;-61
2023/04/21 09:38:01;;;;;;;9.80;3.15;;;;;;;;;;4956539;28;20054;-61
2023/04/21 09:40:31;;;;;;;7.63;2.83;;;;;;;;;;4989070;28;20054;-62
2023/04/21 09:43:01;;;;;;;6.80;2.60;;;;;;;;;;4988974;28;20054;-62
2023/04/21 09:45:32;;;;;;;6.25;2.58;;;;;;;;;;5005697;28;20068;-61
2023/04/21 09:48:11;;;;;;;7.95;3.90;;;;;;;;;;4976352;28;20460;-62
2023/04/21 09:50:41;;;;;;;;;;;;;;;;;;4976716;28;20065;-62
2023/04/21 09:53:38;;;;;;;7.93;3.50;;;;;;;;;;5011006;28;19921;-61
2023/04/21 09:56:12;;;;;;;9.60;3.83;;;;;;;;;;5010894;28;20046;-62
2023/04/21 09:58:53;;;;;;;10.55;4.40;;;;;;;;;;4992697;28;20058;-62
2023/04/21 10:01:28;;;;;;;9.52;3.70;;;;;;;;;;5012755;28;20608;-61
2023/04/21 10:03:59;;;;;;;11.07;4.13;;;;;;;;;;5014802;28;20053;-63
2023/04/21 10:06:30;;;;;;;8.80;3.70;;;;;;;;;;5014517;28;20589;-61
2023/04/21 10:09:03;;;;;;;9.80;3.88;;;;;;;;;;5012596;28;20054;-62
2023/04/21 10:11:34;;;;;;;14.25;4.82;;;;;;;;;;4980020;28;20464;-61
2023/04/21 10:14:04;;;;;;;10.32;5.35;;;;;;;;;;5014435;28;20403;-62
2023/04/21 10:16:37;;;;;;;10.70;4.25;;;;;;;;;;4963189;28;20513;-62
2023/04/21 10:19:25;;;;;;;12.98;4.30;;;;;;;;;;4995812;28;20474;-61
2023/04/21 10:21:59;;;;;;;9.45;3.47;;;;;;;;;;5014395;28;20054;-61
2023/04/21 10:24:30;;;;;;;8.80;4.05;;;;;;;;;;5013982;28;20046;-61
2023/04/21 10:27:01;;;;;;;10.88;3.42;;;;;;;;;;5014085;28;20054;-61
2023/04/21 10:29:33;;;;;;;9.32;3.72;;;;;;;;;;5014347;28;20516;-62
2023/04/21 10:32:06;;;;;;;7.20;3.25;;;;;;;;;;5013849;28;20042;-62
2023/04/21 10:34:38;;;;;;;11.77;3.88;;;;;;;;;;5013983;28;20037;-61
2023/04/21 10:37:11;;;;;;;8.77;3.53;;;;;;;;;;4997407;28;20445;-63
2023/04/21 10:39:51;;;;;;;8.20;3.60;;;;;;;;;;4966686;28;20054;-64
2023/04/21 10:42:28;;;;;;;8.63;4.10;;;;;;;;;;5031408;28;20156;-61
2023/04/21 10:45:00;;;;;;;10.90;5.18;;;;;;;;;;4951144;28;20088;-63
2023/04/21 10:47:42;;;;;;;12.15;4.45;;;;;;;;;;5031420;28;20049;-61
2023/04/21 10:50:28;;;;;;;10.73;5.18;;;;;;;;;;4964723;28;20502;-61
2023/04/21 10:53:10;;;;;;;12.95;4.68;;;;;;;;;;5011477;28;20113;-62
2023/04/21 10:55:41;;;;;;;10.55;4.30;;;;;;;;;;5011123;28;20502;-62
2023/04/21 10:58:15;;;;;;;9.43;3.90;;;;;;;;;;5011187;28;20058;-61
2023/04/21 11:00:45;;;;;;;8.77;3.42;;;;;;;;;;4978522;28;20054;-61
2023/04/21 11:03:15;;;;;;;6.45;3.22;;;;;;;;;;4979378;28;20058;-61
2023/04/21 11:05:46;;;;;;;8.10;3.70;;;;;;;;;;4979273;28;20158;-61
2023/04/21 11:08:16;;;;;;;7.63;3.63;;;;;;;;;;4962645;28;20054;-61
2023/04/21 11:10:54;;;;;;;6.97;3.33;;;;;;;;;;4978145;28;20673;-62
2023/04/21 11:13:32;;;;;;;9.25;3.88;;;;;;;;;;4996067;28;20398;-62
2023/04/21 11:16:06;;;;;;;9.93;4.35;;;;;;;;;;4978305;28;20053;-62
2023/04/21 11:18:38;;;;;;;8.90;4.18;;;;;;;;;;4974801;28;20411;-62
2023/04/21 11:21:14;;;;;;;7.57;3.47;;;;;;;;;;4975053;28;20050;-62
2023/04/21 11:23:54;;;;;;;9.27;4.45;;;;;;;;;;4971923;28;20430;-62
2023/04/21 11:26:36;;;;;;;9.98;3.80;;;;;;;;;;4971836;28;20062;-62
2023/04/21 11:29:09;;;;;;;12.35;4.05;;;;;;;;;;4994409;28;20461;-62
2023/04/21 11:31:42;;;;;;;10.00;3.72;;;;;;;;;;4994263;28;20157;-62
2023/04/21 11:34:15;;;;;;;12.65;4.63;;;;;;;;;;5010931;28;20494;-62
2023/04/21 11:36:47;;;;;;;13.52;4.72;;;;;;;;;;5010813;28;20446;-63
2023/04/21 11:39:20;;;;;;;9.73;4.68;;;;;;;;;;4978168;28;20064;-63
2023/04/21 11:41:51;;;;;;;9.77;4.90;;;;;;;;;;5010835;28;20061;-62
2023/04/21 11:44:32;;;;;;;12.88;4.10;;;;;;;;;;5010391;28;20514;-62
2023/04/21 11:47:19;;;;;;;7.80;3.80;;;;;;;;;;5010596;28;20069;-62
2023/04/21 11:49:57;;;;;;;10.73;5.28;;;;;;;;;;4977667;28;20577;-63
2023/04/21 11:52:32;;;;;;;9.80;4.70;;;;;;;;;;5010441;28;20065;-62
2023/04/21 11:55:10;;;;;;;10.38;5.30;;;;;;;;;;4977599;28;20057;-63
2023/04/21 11:57:41;;;;;;;17.40;6.55;;;;;;;;;;5010226;28;20048;-62
2023/04/21 12:00:15;;;;;;;12.07;6.15;;;;;;;;;;5009992;28;20418;-63
2023/04/21 12:02:54;;;;;;;12.90;6.70;;;;;;;;;;4996700;28;20057;-63
2023/04/21 12:05:33;;;;;;;14.20;6.60;;;;;;;;;;4981475;28;20065;-63
2023/04/21 12:08:05;;;;;;;13.75;7.47;;;;;;;;;;5032239;28;20044;-63
2023/04/21 12:10:35;;;;;;;13.30;6.93;;;;;;;;;;5031949;28;20037;-62
2023/04/21 12:13:05;;;;;;;14.40;8.18;;;;;;;;;;4989978;28;20053;-63
2023/04/21 12:15:35;;;;;;;14.85;6.82;;;;;;;;;;4990164;28;20047;-63
2023/04/21 12:18:12;;;;;;;14.05;6.30;;;;;;;;;;4990039;28;20054;-62
2023/04/21 12:20:52;;;;;;;11.38;6.10;;;;;;;;;;4973805;28;20131;-62
2023/04/21 12:23:22;;;;;;;12.13;6.07;;;;;;;;;;4973152;28;20059;-63
2023/04/21 12:25:52;;;;;;;10.65;4.80;;;;;;;;;;4957543;28;20057;-62
2023/04/21 12:28:22;;;;;;;8.63;4.07;;;;;;;;;;4957554;28;20062;-64
2023/04/21 12:30:52;;;;;;;11.57;5.00;;;;;;;;;;4990329;28;20050;-61
2023/04/21 12:33:22;;;;;;;6.50;3.30;;;;;;;;;;4974215;28;20067;-62
2023/04/21 12:35:53;;;;;;;6.13;2.75;;;;;;;;;;4990190;28;20050;-63
2023/04/21 12:38:22;;;;;;;5.43;1.92;;;;;;;;;;4974098;28;20073;-62
2023/04/21 12:40:53;;;;;;;3.45;2.35;;;;;;;;;;4969661;28;20050;-62
2023/04/21 12:43:23;;;;;;;3.50;1.17;;;;;;;;;;4954331;28;20063;-62
2023/04/21 12:45:56;;;;;;;3.28;1.17;;;;;;;;;;4954836;28;20051;-62
2023/04/21 12:48:26;;;;;;;3.15;1.00;;;;;;;;;;4970506;28;20051;-63
2023/04/21 12:50:56;;;;;;;3.25;1.20;;;;;;;;;;4966101;28;20062;-62
2023/04/21 12:53:26;;;;;;;3.53;1.15;;;;;;;;;;4969253;28;20060;-62
2023/04/21 12:55:59;;;;;;;2.95;1.30;;;;;;;;;;4993897;28;20050;-62
2023/04/21 12:58:33;;;;;;;3.72;1.08;;;;;;;;;;5008898;28;20058;-63
2023/04/21 13:01:03;;;;;;;3.22;1.92;;;;;;;;;;5009291;28;20054;-63
2023/04/21 13:03:33;;;;;;;4.10;1.10;;;;;;;;;;4960128;28;20041;-61
2023/04/21 13:06:04;;;;;;;2.50;0.70;;;;;;;;;;5009204;28;20054;-63
2023/04/21 13:08:35;;;;;;;2.08;0.95;;;;;;;;;;5009177;28;20064;-63
2023/04/21 13:11:06;;;;;;;2.80;1.13;;;;;;;;;;4944088;28;20144;-62
2023/04/21 13:13:37;;;;;;;2.58;1.10;;;;;;;;;;5009012;28;20532;-64
2023/04/21 13:16:08;;;;;;;2.40;1.00;;;;;;;;;;4976511;28;20057;-62
2023/04/21 13:18:38;;;;;;;2.92;1.15;;;;;;;;;;5003658;28;20612;-63
2023/04/21 13:21:08;;;;;;;3.15;0.95;;;;;;;;;;5013062;28;20050;-62
2023/04/21 13:23:39;;;;;;;3.28;1.20;;;;;;;;;;5028754;28;20509;-62
2023/04/21 13:26:09;;;;;;;2.30;1.05;;;;;;;;;;5029834;28;20393;-63
2023/04/21 13:28:39;;;;;;;4.45;1.10;;;;;;;;;;5030984;28;20051;-63
2023/04/21 13:31:09;;;;;;;3.40;1.35;;;;;;;;;;4996364;28;20045;-63
2023/04/21 13:33:40;;;;;;;2.80;0.90;;;;;;;;;;5031205;28;20486;-61
2023/04/21 13:36:11;;;;;;;2.63;1.17;;;;;;;;;;5012413;28;20045;-63
2023/04/21 13:38:41;;;;;;;2.00;1.15;;;;;;;;;;5031070;28;20041;-62
2023/04/21 13:41:11;;;;;;;2.15;1.00;;;;;;;;;;5030778;28;20046;-62
2023/04/21 13:43:42;;;;;;;3.28;1.67;;;;;;;;;;5008057;28;20075;-64
2023/04/21 13:46:13;;;;;;;2.92;1.00;;;;;;;;;;5008746;28;20050;-64
2023/04/21 13:48:45;;;;;;;4.70;1.20;;;;;;;;;;5007442;28;20739;-63
2023/04/21 13:51:15;;;;;;;2.70;0.93;;;;;;;;;;4975740;28;20046;-63
2023/04/21 13:53:44;;;;;;;4.50;1.48;;;;;;;;;;4960949;28;20441;-63
2023/04/21 13:56:16;;;;;;;3.10;1.40;;;;;;;;;;5008360;28;20069;-63
2023/04/21 13:58:46;;;;;;;3.08;1.10;;;;;;;;;;5008209;28;20516;-63
2023/04/21 14:01:16;;;;;;;3.15;1.55;;;;;;;;;;5008338;28;20355;-63
2023/04/21 14:03:49;;;;;;;4.78;0.90;;;;;;;;;;5008371;28;20061;-62
2023/04/21 14:06:20;;;;;;;3.22;1.10;;;;;;;;;;5008422;28;20054;-62
2023/04/21 14:08:49;;;;;;;2.63;1.00;;;;;;;;;;5008340;28;20096;-64
2023/04/21 14:11:20;;;;;;;2.15;0.93;;;;;;;;;;4922109;28;20047;-63
2023/04/21 14:13:50;;;;;;;2.97;1.20;;;;;;;;;;4913324;29;20056;-62
2023/04/21 14:16:27;;;;;;;2.60;1.00;;;;;;;;;;4930855;29;20524;-62
2023/04/21 14:18:57;;;;;;;3.58;1.13;;;;;;;;;;4883690;29;20052;-63
2023/04/21 14:21:27;;;;;;;8.60;1.45;;;;;;;;;;4930987;29;20059;-63
2023/04/21 14:23:57;;;;;;;2.97;1.23;;;;;;;;;;4930980;29;20059;-63
2023/04/21 14:26:27;;;;;;;2.58;0.90;;;;;;;;;;4930759;29;20056;-62
2023/04/21 14:28:59;;;;;;;2.75;1.50;;;;;;;;;;4930695;29;20052;-64
2023/04/21 14:31:29;;;;;;;3.15;1.02;;;;;;;;;;4931017;29;20056;-63
2023/04/21 14:34:00;;;;;;;2.92;1.00;;;;;;;;;;4930651;29;20047;-62
2023/04/21 14:36:30;;;;;;;2.72;1.05;;;;;;;;;;4930600;29;20487;-65
2023/04/21 14:39:00;;;;;;;2.70;1.30;;;;;;;;;;4930752;29;20059;-63
2023/04/21 14:41:30;;;;;;;2.97;1.10;;;;;;;;;;4914541;29;20066;-62
2023/04/21 14:44:02;;;;;;;2.25;0.88;;;;;;;;;;4895682;29;20448;-62
2023/04/21 14:46:32;;;;;;;4.05;1.52;;;;;;;;;;4912331;29;20055;-63
2023/04/21 14:49:04;;;;;;;7.30;1.17;;;;;;;;;;4924787;29;20060;-63
2023/04/21 14:51:36;;;;;;;2.92;0.90;;;;;;;;;;4932829;28;20058;-62
2023/04/21 14:54:08;;;;;;;1.52;0.63;;;;;;;;;;4991659;28;20058;-63
2023/04/21 14:56:38;;;;;;;2.03;0.90;;;;;;;;;;4975579;28;20065;-62
2023/04/21 14:59:09;;;;;;;3.05;1.15;;;;;;;;;;4972104;28;20062;-63
2023/04/21 15:01:39;;;;;;;4.13;1.30;;;;;;;;;;4940076;28;20073;-62
2023/04/21 15:04:09;;;;;;;4.47;1.10;;;;;;;;;;4972494;28;20069;-64
2023/04/21 15:06:40;;;;;;;3.88;1.05;;;;;;;;;;4972376;28;20075;-62